createdAt,value
2023-01-03T00:04:58.615Z,5.93
2023-01-03T00:10:04.088Z,6.93
2023-01-03T00:15:07.629Z,6.77
2023-01-03T00:20:11.205Z,6.53
2023-01-03T00:25:14.083Z,6.90
2023-01-03T00:30:21.100Z,6.10
2023-01-03T05:32:53.998Z,9.00
2023-01-03T05:37:56.881Z,8.63
2023-01-03T05:42:59.717Z,8.10
2023-01-03T05:48:02.527Z,7.27
2023-01-03T05:53:05.388Z,8.47
2023-01-03T05:58:08.263Z,7.27
2023-01-03T06:03:11.102Z,6.27
2023-01-03T06:08:14.023Z,6.80
2023-01-03T06:13:16.827Z,6.67
2023-01-03T06:18:19.612Z,7.20
2023-01-03T06:23:22.428Z,7.17
2023-01-03T06:28:25.315Z,7.17
2023-01-03T06:33:28.162Z,7.80
2023-01-03T06:38:31.038Z,8.50
2023-01-03T06:43:34.203Z,7.83
2023-01-03T06:48:55.736Z,8.13
2023-01-03T06:53:58.584Z,10.13
2023-01-03T06:59:01.447Z,8.13
2023-01-03T07:04:04.435Z,10.00
2023-01-03T07:09:07.689Z,7.63
2023-01-03T07:14:11.848Z,8.10
2023-01-03T07:19:17.162Z,8.00
2023-01-03T07:24:20.044Z,8.47
2023-01-03T07:29:22.953Z,7.80
2023-01-03T07:34:25.889Z,7.40
2023-01-03T07:39:28.747Z,8.83
2023-01-03T07:44:31.599Z,9.17
2023-01-03T07:49:34.420Z,8.97
2023-01-03T07:54:37.227Z,8.10
2023-01-03T07:59:40.070Z,7.30
2023-01-03T08:04:43.024Z,8.00
2023-01-03T08:10:04.344Z,7.40
2023-01-03T08:15:07.725Z,6.10
2023-01-03T08:20:10.788Z,5.30
2023-01-03T08:25:13.634Z,4.60
2023-01-03T08:30:16.561Z,4.20
2023-01-03T08:35:19.520Z,4.00
2023-01-03T08:40:22.547Z,4.57
2023-01-03T08:45:27.640Z,4.33
2023-01-03T08:50:30.944Z,4.10
2023-01-03T08:55:34.562Z,4.40
2023-01-03T09:00:37.832Z,3.07
2023-01-03T09:05:40.772Z,3.77
2023-01-03T09:10:47.488Z,4.17
2023-01-03T09:15:50.948Z,4.23
2023-01-03T09:20:53.846Z,3.53
2023-01-03T09:25:56.810Z,3.50
2023-01-03T09:30:59.856Z,3.67
2023-01-03T09:36:02.839Z,4.07
2023-01-03T09:41:12.947Z,3.50
2023-01-03T09:46:20.965Z,3.70
2023-01-03T09:51:47.959Z,3.77
2023-01-03T09:57:09.294Z,3.20
2023-01-03T10:02:38.838Z,3.13
2023-01-03T10:08:06.605Z,3.50
2023-01-03T10:13:47.902Z,3.30
2023-01-03T10:19:23.050Z,3.70
2023-01-03T10:24:37.068Z,4.30
2023-01-03T10:29:40.192Z,4.30
2023-01-03T10:34:43.058Z,3.43
2023-01-03T10:39:45.900Z,4.10
2023-01-03T10:45:04.271Z,3.40
2023-01-03T10:50:08.525Z,3.73
2023-01-03T10:55:17.086Z,4.33
2023-01-03T11:00:26.691Z,3.83
2023-01-03T11:05:29.578Z,3.70
2023-01-03T11:10:49.163Z,3.83
2023-01-03T11:15:57.433Z,3.80
2023-01-03T11:21:15.829Z,3.80
2023-01-03T11:26:24.530Z,3.23
2023-01-03T11:31:49.573Z,3.37
2023-01-03T11:37:13.863Z,3.53
2023-01-03T11:42:35.643Z,3.07
2023-01-03T11:47:47.421Z,3.23
2023-01-03T11:53:03.096Z,3.83
2023-01-03T11:58:33.681Z,3.77
2023-01-03T12:03:52.708Z,3.37
2023-01-03T12:09:10.594Z,3.03
2023-01-03T12:14:26.863Z,2.87
2023-01-03T12:19:43.722Z,3.00
2023-01-03T12:25:25.500Z,3.20
2023-01-03T12:30:34.259Z,2.80
2023-01-03T12:35:52.023Z,3.27
2023-01-03T12:41:06.083Z,3.67
2023-01-03T12:46:16.222Z,3.10
2023-01-03T12:51:24.624Z,2.40
2023-01-03T12:56:27.419Z,2.63
2023-01-03T13:01:36.439Z,2.13
2023-01-03T13:06:45.019Z,2.70
2023-01-03T13:11:54.569Z,2.70
2023-01-03T13:17:15.597Z,2.37
2023-01-03T13:23:12.865Z,3.73
2023-01-03T13:28:18.624Z,3.23
2023-01-03T13:33:21.993Z,3.30
2023-01-03T13:38:35.270Z,3.23
2023-01-03T13:43:40.259Z,2.40
2023-01-03T13:48:59.266Z,3.63
2023-01-03T13:54:22.424Z,3.43
2023-01-03T13:59:43.977Z,3.63
2023-01-03T14:05:08.493Z,3.37
2023-01-03T14:10:11.256Z,3.47
2023-01-03T14:15:26.481Z,4.13
2023-01-03T14:20:32.574Z,4.27
2023-01-03T14:25:37.627Z,5.33
2023-01-03T14:30:40.906Z,5.33
2023-01-03T14:35:44.698Z,5.50
2023-01-03T14:40:48.433Z,4.10
2023-01-03T14:45:56.204Z,3.20
2023-01-03T14:51:05.332Z,3.00
2023-01-03T14:56:11.254Z,3.03
2023-01-03T15:01:14.964Z,3.33
2023-01-03T15:06:23.977Z,3.33
2023-01-03T15:12:01.556Z,3.70
2023-01-03T15:17:06.307Z,4.40
2023-01-03T15:22:47.078Z,3.70
2023-01-03T15:27:50.902Z,3.73
2023-01-03T15:32:58.536Z,3.47
2023-01-03T15:38:03.873Z,3.90
2023-01-03T15:43:24.866Z,5.07
2023-01-03T15:48:28.628Z,4.17
2023-01-03T15:53:36.609Z,4.93
2023-01-03T15:58:44.298Z,5.83
2023-01-03T16:03:48.618Z,6.37
2023-01-03T16:08:52.953Z,6.43
2023-01-03T16:13:59.128Z,5.43
2023-01-03T16:19:03.995Z,6.80
2023-01-03T16:24:06.961Z,6.57
2023-01-03T16:29:09.933Z,6.33
2023-01-03T16:34:21.302Z,6.33
2023-01-03T16:39:26.575Z,9.83
2023-01-03T16:44:29.420Z,8.30
2023-01-03T16:49:35.099Z,8.60
2023-01-03T16:54:37.935Z,7.47
2023-01-03T16:59:40.784Z,7.23
2023-01-03T17:04:44.760Z,7.63
2023-01-03T17:09:48.954Z,7.63
2023-01-03T17:14:52.192Z,8.67
2023-01-03T17:20:04.997Z,14.37
2023-01-03T17:25:10.979Z,13.57
2023-01-03T17:30:21.639Z,16.50
2023-01-03T17:35:24.510Z,15.30
2023-01-03T17:40:33.338Z,12.90
2023-01-03T17:45:55.347Z,13.23
2023-01-03T17:50:58.393Z,13.13
2023-01-03T17:56:01.814Z,15.67
2023-01-03T18:01:05.988Z,16.10
2023-01-03T18:06:20.322Z,18.40
2023-01-03T18:11:26.364Z,16.87
2023-01-03T18:16:30.040Z,15.27
2023-01-03T18:21:33.860Z,14.57
2023-01-03T18:26:38.576Z,12.17
2023-01-03T18:31:42.453Z,11.40
2023-01-03T18:36:50.903Z,9.97
2023-01-03T18:41:53.752Z,10.03
2023-01-03T18:46:56.676Z,10.40
2023-01-03T18:51:59.573Z,10.37
2023-01-03T18:57:02.468Z,10.67
2023-01-03T19:02:16.349Z,11.53
2023-01-03T19:07:25.055Z,11.00
2023-01-03T19:12:28.082Z,11.73
2023-01-03T19:17:31.049Z,10.70
2023-01-03T19:22:35.869Z,11.37
2023-01-03T19:27:45.334Z,10.97
2023-01-03T19:32:55.888Z,10.27
2023-01-03T19:37:58.949Z,10.53
2023-01-03T19:43:01.824Z,10.67
2023-01-03T19:48:20.115Z,10.90
2023-01-03T19:53:22.967Z,10.83
2023-01-03T19:58:32.689Z,9.73
2023-01-03T20:03:40.536Z,11.53
2023-01-03T20:08:43.944Z,12.93
2023-01-03T20:13:47.544Z,12.40
2023-01-03T20:18:50.593Z,13.43
2023-01-03T20:23:55.892Z,12.30
2023-01-03T20:29:00.278Z,13.33
2023-01-03T20:34:06.652Z,13.40
2023-01-03T20:39:24.387Z,13.47
2023-01-03T20:44:27.504Z,13.90
2023-01-03T20:49:30.578Z,15.30
2023-01-03T20:54:33.423Z,14.37
2023-01-03T20:59:36.304Z,15.20
2023-01-03T21:04:39.692Z,14.97
2023-01-03T21:09:42.532Z,16.33
2023-01-03T21:14:45.710Z,15.23
2023-01-03T21:19:48.645Z,15.63
2023-01-03T21:24:57.373Z,17.03
2023-01-03T21:30:00.797Z,17.93
2023-01-03T21:35:03.763Z,15.97
2023-01-03T21:40:14.300Z,15.87
2023-01-03T21:45:17.195Z,15.67
2023-01-03T21:50:20.553Z,15.73
2023-01-03T21:55:24.093Z,17.77
2023-01-03T22:00:26.958Z,19.10
2023-01-03T22:05:29.989Z,18.03
2023-01-03T22:10:33.808Z,19.43
2023-01-03T22:15:38.357Z,17.73
2023-01-03T22:20:41.185Z,19.70
2023-01-03T22:25:44.051Z,19.97
2023-01-03T22:30:46.904Z,17.47
2023-01-03T22:35:49.733Z,19.53
2023-01-03T22:40:52.576Z,20.07
2023-01-03T22:45:55.485Z,16.67
2023-01-03T22:51:03.181Z,18.30
2023-01-03T22:56:08.344Z,15.73
2023-01-03T23:01:13.335Z,15.70
2023-01-03T23:06:18.422Z,15.87
2023-01-03T23:11:42.012Z,16.03
2023-01-03T23:16:45.349Z,16.43
2023-01-03T23:21:48.359Z,15.20
2023-01-03T23:26:52.147Z,15.63
2023-01-03T23:31:55.052Z,15.33
2023-01-03T23:36:57.899Z,17.53
2023-01-03T23:42:00.940Z,16.73
2023-01-03T23:47:09.356Z,17.03
2023-01-03T23:52:14.385Z,18.03
2023-01-03T23:57:17.880Z,15.90
